Time;durP1;ratioP1;P1;durP2;ratioP2;P2;SDS_P1;SDS_P2;PMS_P1;PMS_P2;Temp;Humidity;BMP_temperature;BMP_pressure;BME280_temperature;BME280_humidity;BME280_pressure;Samples;Min_cycle;Max_cycle;Signal;HPM_P1;HPM_P2
2022/03/05 00:00:21;;;;;;;22.70;11.40;;;;;;;3.56;48.76;97368.78;4917654;28;20018;-80
2022/03/05 00:02:47;;;;;;;22.80;10.27;;;;;;;3.53;48.46;97364.00;4922842;28;20022;-80
2022/03/05 00:05:13;;;;;;;21.33;9.68;;;;;;;3.43;49.17;97366.16;4942086;28;20740;-80
2022/03/05 00:07:39;;;;;;;22.02;8.70;;;;;;;3.45;48.30;97366.75;4941878;28;20025;-80
2022/03/05 00:10:05;;;;;;;15.80;8.07;;;;;;;3.47;48.21;97363.97;4908104;28;20049;-80
2022/03/05 00:12:30;;;;;;;18.88;8.23;;;;;;;3.46;48.17;97352.91;4950734;28;20053;-80
2022/03/05 00:14:56;;;;;;;21.13;9.38;;;;;;;3.43;49.25;97358.44;4914692;28;20056;-80
2022/03/05 00:17:22;;;;;;;17.38;8.63;;;;;;;3.37;48.18;97359.19;4917476;28;20111;-80
2022/03/05 00:19:47;;;;;;;21.58;10.88;;;;;;;3.29;48.99;97355.03;4935261;28;20195;-80
2022/03/05 00:22:12;;;;;;;17.60;9.05;;;;;;;3.31;48.87;97359.97;4922864;28;20034;-80
2022/03/05 00:24:38;;;;;;;21.75;10.75;;;;;;;3.37;48.65;97364.34;4924132;28;20721;-80
2022/03/05 00:27:04;;;;;;;18.98;9.07;;;;;;;3.31;49.57;97362.56;4912517;28;20060;-80
2022/03/05 00:29:30;;;;;;;58.78;24.20;;;;;;;3.25;49.22;97355.59;4914696;28;20037;-79
2022/03/05 00:31:55;;;;;;;31.30;15.35;;;;;;;3.17;50.07;97364.25;4902683;28;20123;-80
2022/03/05 00:34:21;;;;;;;20.85;9.30;;;;;;;3.06;50.54;97362.25;4919956;28;20040;-80
2022/03/05 00:36:46;;;;;;;23.13;10.55;;;;;;;2.95;50.58;97361.03;4925162;28;20083;-79
2022/03/05 00:39:11;;;;;;;27.73;12.57;;;;;;;3.03;49.93;97368.56;4929440;28;20970;-79
2022/03/05 00:41:37;;;;;;;25.20;11.45;;;;;;;3.09;50.06;97367.03;4930157;28;20033;-79
2022/03/05 00:44:02;;;;;;;23.42;9.95;;;;;;;3.15;50.25;97379.91;4939979;28;20155;-79
2022/03/05 00:46:28;;;;;;;21.25;9.20;;;;;;;3.16;50.31;97378.91;4920860;28;20036;-79
2022/03/05 00:48:53;;;;;;;17.10;8.57;;;;;;;3.18;49.23;97381.28;4922424;28;20022;-79
2022/03/05 00:51:19;;;;;;;21.33;9.07;;;;;;;3.07;49.84;97377.50;4913099;28;20072;-79
2022/03/05 00:53:44;;;;;;;21.23;9.65;;;;;;;2.97;50.09;97370.13;4921960;28;20081;-79
2022/03/05 00:56:10;;;;;;;24.45;11.57;;;;;;;3.04;50.45;97377.09;4905704;28;20029;-78
2022/03/05 00:58:35;;;;;;;24.95;9.95;;;;;;;3.05;50.73;97379.47;4906680;28;20029;-78
2022/03/05 01:01:01;;;;;;;23.23;10.38;;;;;;;2.90;50.94;97371.09;4921042;28;20029;-78
2022/03/05 01:03:26;;;;;;;18.33;8.90;;;;;;;2.98;50.75;97383.78;4928327;28;20673;-79
2022/03/05 01:05:53;;;;;;;18.60;8.23;;;;;;;2.95;50.72;97377.25;4931310;28;20859;-78
2022/03/05 01:08:19;;;;;;;18.38;8.23;;;;;;;2.91;50.89;97378.59;4899373;28;20022;-79
2022/03/05 01:10:45;;;;;;;23.20;10.45;;;;;;;2.86;51.28;97375.00;4914848;28;20742;-79
2022/03/05 01:13:10;;;;;;;20.67;9.00;;;;;;;2.79;51.67;97382.69;4914454;28;20104;-79
2022/03/05 01:15:36;;;;;;;18.92;9.70;;;;;;;2.78;51.84;97370.81;4918879;28;20037;-79
2022/03/05 01:18:01;;;;;;;26.00;10.65;;;;;;;2.81;51.89;97375.56;4899585;28;20037;-78
2022/03/05 01:20:26;;;;;;;21.48;9.43;;;;;;;2.80;51.94;97376.56;4931304;28;20038;-79
2022/03/05 01:22:52;;;;;;;23.15;11.05;;;;;;;2.88;51.74;97371.28;4926544;28;20666;-78
2022/03/05 01:25:17;;;;;;;28.33;12.18;;;;;;;2.84;51.63;97366.69;4929302;28;20077;-78
2022/03/05 01:27:43;;;;;;;22.33;9.85;;;;;;;2.82;51.57;97364.31;4915230;28;20857;-79
2022/03/05 01:30:09;;;;;;;24.65;9.82;;;;;;;2.78;51.28;97360.53;4896008;28;20876;-78
2022/03/05 01:32:34;;;;;;;26.05;10.90;;;;;;;2.77;52.18;97362.28;4902751;28;20683;-79
2022/03/05 01:35:00;;;;;;;32.05;12.90;;;;;;;2.68;51.97;97353.16;4920430;28;20699;-78
2022/03/05 01:37:25;;;;;;;24.40;10.00;;;;;;;2.72;52.26;97359.50;4933247;28;20041;-78
2022/03/05 01:39:51;;;;;;;19.83;8.57;;;;;;;2.78;51.72;97365.69;4927358;28;20053;-78
2022/03/05 01:42:20;;;;;;;22.60;9.10;;;;;;;2.66;51.88;97367.16;4934340;28;20025;-78
2022/03/05 01:44:46;;;;;;;20.02;8.63;;;;;;;2.72;51.86;97372.34;4913250;28;20021;-78
2022/03/05 01:47:11;;;;;;;20.02;8.80;;;;;;;2.63;51.77;97363.22;4920196;28;20026;-78
2022/03/05 01:49:37;;;;;;;19.42;7.90;;;;;;;2.54;52.39;97360.00;4899342;28;20018;-78
2022/03/05 01:52:03;;;;;;;20.92;8.38;;;;;;;2.43;52.67;97361.31;4930611;28;20026;-78
2022/03/05 01:54:29;;;;;;;19.67;8.43;;;;;;;2.45;52.77;97361.13;4931883;28;20111;-79
2022/03/05 01:56:55;;;;;;;22.23;8.90;;;;;;;2.44;52.54;97362.91;4917963;28;20028;-78
2022/03/05 01:59:24;;;;;;;18.70;8.60;;;;;;;2.38;52.68;97361.09;4934091;28;20025;-78
2022/03/05 02:01:49;;;;;;;18.13;7.82;;;;;;;2.44;52.87;97368.03;4918462;28;20361;-78
2022/03/05 02:04:15;;;;;;;18.65;9.00;;;;;;;2.46;52.77;97367.06;4908883;28;20107;-78
2022/03/05 02:06:41;;;;;;;21.35;9.00;;;;;;;2.44;53.05;97365.47;4913757;28;20022;-78
2022/03/05 02:09:06;;;;;;;18.60;8.30;;;;;;;2.48;53.01;97367.66;4935535;28;20025;-78
2022/03/05 02:11:31;;;;;;;23.60;9.10;;;;;;;2.48;53.09;97352.25;4897895;28;20096;-78
2022/03/05 02:13:57;;;;;;;21.80;8.70;;;;;;;2.46;53.11;97357.56;4928220;28;20030;-77
2022/03/05 02:16:23;;;;;;;20.60;9.40;;;;;;;2.42;53.44;97356.38;4911719;28;20025;-79
2022/03/05 02:18:50;;;;;;;19.98;9.35;;;;;;;2.47;53.16;97364.31;4898851;28;20043;-78
2022/03/05 02:21:16;;;;;;;22.17;7.90;;;;;;;2.42;53.13;97352.00;4932286;28;20029;-78
2022/03/05 02:23:41;;;;;;;24.40;9.25;;;;;;;2.33;53.83;97352.31;4933397;28;20036;-78
2022/03/05 02:26:06;;;;;;;23.00;8.98;;;;;;;2.36;53.60;97347.59;4917200;28;20648;-78
2022/03/05 02:28:33;;;;;;;21.50;9.15;;;;;;;2.42;53.69;97357.16;4904004;28;20121;-78
2022/03/05 02:30:59;;;;;;;20.90;8.48;;;;;;;2.43;53.47;97353.63;4903245;28;20021;-77
2022/03/05 02:33:25;;;;;;;20.05;7.85;;;;;;;2.41;53.17;97352.97;4932182;28;20120;-77
2022/03/05 02:35:51;;;;;;;22.15;9.13;;;;;;;2.32;53.85;97350.75;4917099;28;20040;-77
2022/03/05 02:38:21;;;;;;;21.98;9.30;;;;;;;2.10;53.83;97342.28;4919556;28;20117;-78
2022/03/05 02:40:48;;;;;;;21.42;9.27;;;;;;;2.22;54.30;97351.06;4937910;28;20040;-78
2022/03/05 02:43:13;;;;;;;21.80;9.57;;;;;;;2.23;53.77;97350.09;4922760;28;20076;-78
2022/03/05 02:45:39;;;;;;;24.27;9.35;;;;;;;2.21;53.94;97350.28;4935172;28;20056;-77
2022/03/05 02:48:08;;;;;;;21.40;9.20;;;;;;;2.14;54.12;97353.78;4904381;28;20037;-77
2022/03/05 02:50:33;;;;;;;20.40;9.43;;;;;;;2.22;54.38;97353.66;4920275;28;20074;-78
2022/03/05 02:52:59;;;;;;;22.40;8.10;;;;;;;2.22;54.43;97351.06;4921855;28;20049;-78
2022/03/05 02:55:24;;;;;;;23.60;8.18;;;;;;;2.18;54.41;97348.09;4908109;28;20200;-78
2022/03/05 02:57:50;;;;;;;20.63;8.93;;;;;;;2.25;53.84;97354.06;4919130;28;20022;-77
2022/03/05 03:00:16;;;;;;;23.98;9.65;;;;;;;2.27;54.43;97353.09;4901417;28;20052;-77
2022/03/05 03:02:44;;;;;;;21.45;9.00;;;;;;;2.29;53.92;97351.13;4933099;28;20819;-77
2022/03/05 03:05:10;;;;;;;23.73;9.73;;;;;;;2.21;54.40;97355.44;4935324;28;20777;-77
2022/03/05 03:07:35;;;;;;;23.05;9.68;;;;;;;2.22;53.97;97353.66;4920627;28;20164;-78
2022/03/05 03:10:01;;;;;;;28.48;11.15;;;;;;;2.25;54.73;97350.72;4916516;28;20037;-78
2022/03/05 03:12:27;;;;;;;25.05;10.05;;;;;;;2.20;54.62;97340.19;4936688;28;20035;-77
2022/03/05 03:14:52;;;;;;;27.20;10.88;;;;;;;2.22;54.51;97348.50;4913565;28;20041;-78
2022/03/05 03:17:18;;;;;;;34.90;12.95;;;;;;;2.24;54.66;97351.69;4936891;28;20025;-77
2022/03/05 03:19:43;;;;;;;31.27;12.07;;;;;;;2.21;54.80;97346.91;4906631;28;20034;-78
2022/03/05 03:22:09;;;;;;;30.75;12.32;;;;;;;2.22;54.39;97351.88;4933700;28;20941;-77
2022/03/05 03:24:34;;;;;;;29.00;11.40;;;;;;;2.16;54.32;97346.66;4936866;28;20100;-77
2022/03/05 03:27:00;;;;;;;28.85;10.90;;;;;;;2.18;54.48;97349.88;4908517;28;20037;-77
2022/03/05 03:29:25;;;;;;;24.27;9.15;;;;;;;2.17;54.74;97353.41;4937575;28;20029;-77
2022/03/05 03:31:51;;;;;;;23.85;9.95;;;;;;;2.18;54.72;97345.53;4921290;28;20109;-77
2022/03/05 03:34:16;;;;;;;22.17;9.88;;;;;;;2.21;55.25;97346.91;4906250;28;20349;-77
2022/03/05 03:36:41;;;;;;;26.50;10.25;;;;;;;2.24;55.01;97356.81;4930654;28;20727;-77
2022/03/05 03:39:07;;;;;;;26.65;9.75;;;;;;;2.17;55.08;97346.50;4955304;28;20811;-77
2022/03/05 03:41:32;;;;;;;26.92;9.50;;;;;;;2.19;55.04;97354.00;4938358;28;20025;-77
2022/03/05 03:43:57;;;;;;;23.92;8.60;;;;;;;2.15;55.07;97352.81;4917765;28;20104;-77
2022/03/05 03:46:23;;;;;;;27.20;10.15;;;;;;;2.11;55.06;97349.81;4915336;28;20836;-77
2022/03/05 03:48:48;;;;;;;24.90;9.65;;;;;;;2.15;55.07;97348.47;4920447;28;20710;-77
2022/03/05 03:51:14;;;;;;;24.85;9.68;;;;;;;2.16;55.40;97354.38;4955696;28;20057;-78
2022/03/05 03:53:39;;;;;;;26.50;10.00;;;;;;;2.15;55.58;97351.03;4918614;28;20025;-77
2022/03/05 03:56:05;;;;;;;24.63;9.40;;;;;;;2.18;55.14;97350.66;4959047;28;20032;-78
2022/03/05 03:58:30;;;;;;;24.40;11.02;;;;;;;2.14;55.73;97348.63;4942854;28;20078;-78
2022/03/05 04:00:55;;;;;;;27.63;10.27;;;;;;;2.09;55.89;97353.53;4939070;28;20025;-78
2022/03/05 04:03:21;;;;;;;26.33;9.60;;;;;;;2.10;55.68;97357.69;4946953;28;20029;-77
2022/03/05 04:05:46;;;;;;;25.52;10.55;;;;;;;2.10;55.91;97352.56;4939922;28;20123;-77
2022/03/05 04:10:56;;;;;;;27.17;10.10;;;;;;;2.08;55.72;97349.41;4942461;28;20028;-78
2022/03/05 04:13:21;;;;;;;21.75;9.32;;;;;;;2.15;55.76;97352.81;4920410;28;20636;-77
2022/03/05 04:15:46;;;;;;;23.30;9.65;;;;;;;2.15;55.81;97356.16;4932261;28;20028;-77
2022/03/05 04:18:12;;;;;;;23.17;9.00;;;;;;;2.20;55.49;97361.53;4919670;28;20065;-77
2022/03/05 04:20:37;;;;;;;21.52;9.38;;;;;;;2.15;55.54;97357.94;4923291;28;20028;-78
2022/03/05 04:23:03;;;;;;;23.13;9.82;;;;;;;2.10;55.33;97357.69;4922301;28;20677;-78
2022/03/05 04:25:29;;;;;;;21.10;8.70;;;;;;;2.05;55.97;97356.47;4945239;28;20025;-78
2022/03/05 04:27:54;;;;;;;20.35;9.82;;;;;;;2.10;55.38;97362.84;4903106;28;20049;-77
2022/03/05 04:30:20;;;;;;;25.83;10.27;;;;;;;2.11;55.33;97360.09;4950792;28;20028;-77
2022/03/05 04:32:45;;;;;;;20.13;9.52;;;;;;;2.15;55.21;97361.28;4940519;28;20036;-78
2022/03/05 04:35:11;;;;;;;21.02;7.88;;;;;;;2.19;54.92;97359.16;4922527;28;20938;-77
2022/03/05 04:37:37;;;;;;;18.00;8.45;;;;;;;2.23;54.83;97361.16;4922204;28;20087;-77
2022/03/05 04:40:04;;;;;;;20.40;8.50;;;;;;;2.18;54.83;97357.56;4922473;28;20832;-77
2022/03/05 04:42:30;;;;;;;21.55;8.55;;;;;;;2.17;55.00;97361.91;4940209;28;20104;-77
2022/03/05 04:44:55;;;;;;;23.27;9.75;;;;;;;2.08;55.34;97359.66;4922964;28;20106;-78
2022/03/05 04:47:20;;;;;;;20.58;8.95;;;;;;;2.02;55.34;97362.00;4920372;28;20156;-77
2022/03/05 04:49:46;;;;;;;20.02;8.55;;;;;;;1.95;55.66;97366.25;4941384;28;20022;-77
2022/03/05 04:52:11;;;;;;;21.90;9.77;;;;;;;1.92;55.49;97368.41;4902504;28;20022;-77
2022/03/05 04:54:37;;;;;;;19.65;8.95;;;;;;;1.88;55.86;97370.53;4920642;28;20029;-77
2022/03/05 04:57:03;;;;;;;20.58;8.00;;;;;;;1.86;55.79;97367.38;4947537;28;20191;-77
2022/03/05 04:59:28;;;;;;;21.27;8.25;;;;;;;1.76;55.64;97361.75;4936304;28;20061;-77
2022/03/05 05:01:56;;;;;;;20.58;8.27;;;;;;;1.77;56.04;97363.34;4940444;28;20322;-77
2022/03/05 05:04:22;;;;;;;20.35;8.63;;;;;;;1.86;55.76;97367.38;4953225;28;20757;-77
2022/03/05 05:06:47;;;;;;;19.48;8.65;;;;;;;1.84;55.80;97367.56;4936372;28;20022;-78
2022/03/05 05:09:12;;;;;;;21.90;8.00;;;;;;;1.84;54.82;97367.56;4928679;28;20029;-77
2022/03/05 05:11:39;;;;;;;19.00;7.28;;;;;;;1.81;55.16;97365.34;4937542;28;20036;-77
2022/03/05 05:14:04;;;;;;;21.92;7.93;;;;;;;1.87;54.88;97366.41;4934871;28;20041;-77
2022/03/05 05:16:30;;;;;;;15.98;6.90;;;;;;;1.90;54.79;97375.50;4950007;28;20125;-77
2022/03/05 05:21:39;;;;;;;17.77;7.68;;;;;;;1.88;54.84;97375.69;4944953;28;20033;-77
2022/03/05 05:24:05;;;;;;;17.50;7.63;;;;;;;1.80;55.42;97379.19;4908562;28;20025;-77
2022/03/05 05:26:31;;;;;;;18.23;7.55;;;;;;;1.73;55.78;97373.19;4947273;28;20037;-77
2022/03/05 05:28:56;;;;;;;20.42;8.38;;;;;;;1.78;55.53;97382.88;4929335;28;20025;-78
2022/03/05 05:31:21;;;;;;;17.77;8.02;;;;;;;1.67;55.53;97384.97;4935900;28;20053;-78
2022/03/05 05:33:49;;;;;;;20.88;8.35;;;;;;;1.58;55.55;97388.63;4898767;28;20030;-77
2022/03/05 05:36:14;;;;;;;21.05;8.38;;;;;;;1.56;55.91;97395.72;4936229;28;20026;-77
2022/03/05 05:38:40;;;;;;;18.90;7.60;;;;;;;1.56;55.65;97398.28;4919871;28;20764;-77
2022/03/05 05:41:06;;;;;;;20.98;8.25;;;;;;;1.60;55.45;97385.88;4919634;28;20037;-78
2022/03/05 05:43:32;;;;;;;17.42;7.45;;;;;;;1.67;55.44;97395.22;4918087;28;20064;-77
2022/03/05 05:45:57;;;;;;;20.17;9.10;;;;;;;1.62;55.55;97394.97;4916861;28;20049;-77
2022/03/05 05:48:23;;;;;;;17.30;7.32;;;;;;;1.77;54.93;97399.28;4918316;28;20034;-77
2022/03/05 05:50:51;;;;;;;19.05;7.68;;;;;;;1.71;55.69;97407.69;4935871;28;20726;-77
2022/03/05 05:53:16;;;;;;;21.05;8.07;;;;;;;1.68;55.37;97404.53;4932599;28;20033;-77
2022/03/05 05:55:42;;;;;;;18.05;7.30;;;;;;;1.74;55.17;97402.22;4922670;28;20033;-79
2022/03/05 05:58:08;;;;;;;16.70;7.63;;;;;;;1.71;54.84;97400.78;4918949;28;20033;-77
2022/03/05 06:00:33;;;;;;;15.55;7.15;;;;;;;1.78;54.96;97408.56;4938085;28;20775;-77
2022/03/05 06:02:58;;;;;;;19.25;8.02;;;;;;;1.79;54.85;97408.38;4922854;28;20017;-77
2022/03/05 06:05:24;;;;;;;18.50;8.23;;;;;;;1.80;54.70;97409.16;4922684;28;20736;-77
2022/03/05 06:07:49;;;;;;;15.52;6.47;;;;;;;1.80;54.97;97422.81;4922045;28;20060;-77
2022/03/05 06:10:15;;;;;;;17.20;7.15;;;;;;;1.79;55.06;97413.53;4938431;28;20025;-77
2022/03/05 06:12:40;;;;;;;19.33;7.95;;;;;;;1.77;55.33;97412.13;4955423;28;20081;-77
2022/03/05 06:15:08;;;;;;;16.70;8.85;;;;;;;1.77;55.35;97420.59;4938281;28;20055;-77
2022/03/05 06:17:34;;;;;;;20.67;8.40;;;;;;;1.76;55.05;97410.53;4921265;28;20116;-77
2022/03/05 06:20:00;;;;;;;16.45;8.07;;;;;;;1.73;54.84;97416.81;4904062;28;20814;-77
2022/03/05 06:22:25;;;;;;;15.60;7.63;;;;;;;1.59;55.56;97418.44;4931732;28;20038;-77
2022/03/05 06:24:51;;;;;;;16.90;7.22;;;;;;;1.58;55.69;97421.22;4928398;28;20037;-77
2022/03/05 06:27:16;;;;;;;18.33;7.82;;;;;;;1.67;55.30;97428.59;4954071;28;20029;-77
2022/03/05 06:29:41;;;;;;;18.10;8.05;;;;;;;1.66;56.02;97429.59;4912749;28;20025;-77
2022/03/05 06:32:07;;;;;;;20.83;9.00;;;;;;;1.61;55.67;97433.66;4921575;28;20088;-77
2022/03/05 06:34:33;;;;;;;19.20;8.43;;;;;;;1.59;55.86;97444.09;4907450;28;20041;-77
2022/03/05 06:37:00;;;;;;;20.48;8.88;;;;;;;1.50;56.28;97430.56;4938897;28;20087;-77
2022/03/05 06:39:26;;;;;;;22.75;9.65;;;;;;;1.47;56.38;97442.97;4940591;28;20739;-78
2022/03/05 06:41:51;;;;;;;24.73;9.73;;;;;;;1.51;56.16;97446.78;4938399;28;20101;-77
2022/03/05 06:44:16;;;;;;;26.45;10.05;;;;;;;1.48;56.69;97436.88;4939375;28;20083;-77
2022/03/05 06:46:42;;;;;;;21.60;9.43;;;;;;;1.48;56.57;97444.56;4940369;28;20021;-78
2022/03/05 06:49:07;;;;;;;22.23;8.98;;;;;;;1.47;56.39;97448.09;4927246;28;20021;-78
2022/03/05 06:51:33;;;;;;;24.15;10.23;;;;;;;1.47;56.70;97445.53;4934536;28;20655;-77
2022/03/05 06:53:58;;;;;;;26.13;10.18;;;;;;;1.48;56.78;97447.13;4922404;28;20087;-77
2022/03/05 06:56:23;;;;;;;24.88;10.63;;;;;;;1.59;57.09;97444.09;4923720;28;20065;-78
2022/03/05 06:58:49;;;;;;;32.13;12.50;;;;;;;1.66;56.70;97441.59;4925257;28;20757;-77
2022/03/05 07:01:15;;;;;;;24.05;9.63;;;;;;;1.67;56.29;97448.34;4952074;28;20865;-78
2022/03/05 07:03:40;;;;;;;36.20;16.58;;;;;;;1.73;56.52;97451.94;4930726;28;20017;-78
2022/03/05 07:06:06;;;;;;;48.15;23.98;;;;;;;1.77;56.60;97451.41;4932758;28;20087;-77
2022/03/05 07:08:31;;;;;;;68.97;36.38;;;;;;;1.79;56.71;97458.94;4916944;28;20056;-77
2022/03/05 07:10:57;;;;;;;89.68;39.55;;;;;;;1.82;56.39;97451.66;4937640;28;20105;-77
2022/03/05 07:13:22;;;;;;;46.38;24.10;;;;;;;1.96;56.36;97462.09;4921887;28;20960;-78
2022/03/05 07:15:48;;;;;;;37.58;17.58;;;;;;;2.02;56.52;97466.47;4920762;28;20028;-78
2022/03/05 07:18:13;;;;;;;30.95;14.95;;;;;;;2.14;56.12;97467.59;4920963;28;20052;-78
2022/03/05 07:20:38;;;;;;;27.05;11.57;;;;;;;2.28;55.77;97463.38;4911408;28;20108;-78
2022/03/05 07:23:04;;;;;;;23.52;9.30;;;;;;;2.39;55.37;97465.44;4936938;28;20026;-78
2022/03/05 07:25:36;;;;;;;25.58;9.13;;;;;;;2.48;55.46;97463.53;4937235;28;20099;-78
2022/03/05 07:28:05;;;;;;;23.60;9.45;;;;;;;2.63;54.81;97461.69;4935057;28;20108;-78
2022/03/05 07:30:31;;;;;;;23.10;10.90;;;;;;;2.61;54.96;97473.16;4945547;28;20022;-78
2022/03/05 07:32:56;;;;;;;30.05;16.60;;;;;;;2.62;54.69;97472.16;4937874;28;20090;-78
2022/03/05 07:35:21;;;;;;;23.13;11.57;;;;;;;2.58;54.90;97470.94;4941955;28;20880;-78
2022/03/05 07:37:47;;;;;;;24.40;11.25;;;;;;;2.70;54.91;97479.72;4938851;28;20104;-78
2022/03/05 07:40:12;;;;;;;21.13;8.98;;;;;;;2.78;54.83;97473.69;4941431;28;20025;-78
2022/03/05 07:42:38;;;;;;;31.15;13.35;;;;;;;2.84;54.38;97472.91;4922372;28;20036;-78
2022/03/05 07:45:03;;;;;;;27.60;13.18;;;;;;;2.80;54.34;97485.34;4921242;28;20026;-78
2022/03/05 07:47:29;;;;;;;34.10;14.95;;;;;;;3.08;54.01;97476.03;4956307;28;20942;-78
2022/03/05 07:49:54;;;;;;;29.27;13.05;;;;;;;3.05;53.64;97476.41;4914430;28;20033;-78
2022/03/05 07:52:19;;;;;;;26.80;10.85;;;;;;;3.36;53.00;97479.38;4933312;28;20776;-78
2022/03/05 07:54:45;;;;;;;22.48;9.15;;;;;;;3.55;52.75;97477.09;4925564;28;20029;-78
2022/03/05 07:57:10;;;;;;;19.40;8.70;;;;;;;3.80;51.63;97481.72;4938252;28;20028;-78
2022/03/05 07:59:36;;;;;;;16.20;8.50;;;;;;;4.00;51.40;97476.66;4921489;28;20959;-78
2022/03/05 08:02:01;;;;;;;17.00;8.50;;;;;;;4.18;51.45;97489.78;4919922;28;20618;-78
2022/03/05 08:04:27;;;;;;;18.30;9.48;;;;;;;4.37;50.29;97484.81;4925447;28;20774;-78
2022/03/05 08:06:52;;;;;;;16.55;8.02;;;;;;;4.60;49.94;97490.41;4912376;28;20431;-78
2022/03/05 08:09:17;;;;;;;21.95;9.43;;;;;;;4.79;49.31;97491.41;4922355;28;20018;-78
2022/03/05 08:11:43;;;;;;;19.52;9.57;;;;;;;5.09;48.38;97498.72;4938004;28;20988;-79
2022/03/05 08:14:08;;;;;;;16.83;8.98;;;;;;;5.32;48.33;97498.28;4923664;28;20022;-79
2022/03/05 08:16:34;;;;;;;15.20;7.50;;;;;;;5.44;48.15;97506.97;4937252;28;20087;-79
2022/03/05 08:19:00;;;;;;;16.50;7.80;;;;;;;5.47;47.26;97503.22;4909227;28;20121;-80
2022/03/05 08:21:29;;;;;;;15.23;7.15;;;;;;;5.73;47.29;97502.31;4913382;28;20040;-80
2022/03/05 08:23:55;;;;;;;18.60;8.35;;;;;;;5.90;46.11;97502.66;4913024;28;20029;-81
2022/03/05 08:26:21;;;;;;;12.40;6.38;;;;;;;6.15;45.82;97495.00;4923002;28;20027;-82
2022/03/05 08:28:46;;;;;;;12.77;6.60;;;;;;;6.30;44.93;97493.94;4933437;28;20022;-82
2022/03/05 08:31:14;;;;;;;16.33;8.20;;;;;;;6.24;44.92;97498.16;4947136;28;20080;-81
2022/03/05 08:33:40;;;;;;;12.70;6.85;;;;;;;6.43;44.23;97503.41;4955029;28;20121;-83
2022/03/05 08:36:06;;;;;;;15.23;8.30;;;;;;;6.39;44.25;97495.25;4919852;28;20112;-83
2022/03/05 08:38:34;;;;;;;16.42;8.02;;;;;;;6.50;43.87;97499.75;4924719;28;20092;-81
2022/03/05 08:41:03;;;;;;;13.23;7.30;;;;;;;6.57;43.34;97497.91;4933515;28;20091;-83
2022/03/05 08:43:28;;;;;;;13.07;6.38;;;;;;;6.86;42.93;97497.50;4935636;28;20029;-83
2022/03/05 08:45:54;;;;;;;13.02;6.40;;;;;;;7.20;42.21;97487.66;4911533;28;20034;-84
2022/03/05 08:48:19;;;;;;;19.35;7.28;;;;;;;7.49;41.65;97499.09;4931319;28;20113;-84
2022/03/05 08:50:45;;;;;;;13.35;6.82;;;;;;;7.71;40.41;97491.69;4918102;28;20108;-83
2022/03/05 08:53:11;;;;;;;10.40;4.93;;;;;;;7.64;39.33;97494.34;4916450;28;20041;-81
2022/03/05 08:55:36;;;;;;;7.90;4.85;;;;;;;7.87;38.19;97485.09;4937385;28;20671;-84
2022/03/05 08:58:01;;;;;;;10.55;5.03;;;;;;;8.10;37.45;97488.78;4928874;28;20033;-83
2022/03/05 09:00:27;;;;;;;8.80;4.68;;;;;;;8.41;36.37;97501.53;4954915;28;20036;-84
2022/03/05 09:02:53;;;;;;;11.40;5.35;;;;;;;8.65;36.40;97499.00;4911180;28;20030;-83
2022/03/05 09:05:18;;;;;;;11.18;4.88;;;;;;;8.75;35.77;97490.66;4920092;28;20784;-83
2022/03/05 09:07:44;;;;;;;9.52;4.82;;;;;;;8.67;37.28;97489.19;4948424;28;20820;-80
2022/03/05 09:10:11;;;;;;;10.98;5.88;;;;;;;8.47;37.49;97489.50;4919785;28;20024;-80
2022/03/05 09:12:37;;;;;;;11.50;5.18;;;;;;;8.36;38.50;97493.63;4936336;28;20036;-81
2022/03/05 09:15:03;;;;;;;9.65;4.63;;;;;;;8.48;37.20;97490.28;4931865;28;20173;-82
2022/03/05 09:17:29;;;;;;;7.68;4.63;;;;;;;8.52;34.76;97487.03;4927420;28;20026;-79
2022/03/05 09:19:54;;;;;;;9.30;4.72;;;;;;;8.69;34.10;97487.16;4943631;28;20520;-83
2022/03/05 09:22:20;;;;;;;7.60;3.85;;;;;;;8.80;34.32;97486.38;4933280;28;20658;-80
2022/03/05 09:24:46;;;;;;;9.70;5.40;;;;;;;8.55;35.60;97485.78;4927311;28;20645;-82
2022/03/05 09:27:11;;;;;;;9.38;4.60;;;;;;;8.85;35.08;97500.50;4946282;28;20060;-82
2022/03/05 09:29:37;;;;;;;9.40;4.80;;;;;;;8.64;34.43;97489.66;4942373;28;20321;-82
2022/03/05 09:32:03;;;;;;;8.50;4.75;;;;;;;8.77;35.55;97497.22;4933798;28;20033;-83
2022/03/05 09:34:28;;;;;;;8.30;4.20;;;;;;;9.03;33.39;97500.41;4942708;28;20040;-83
2022/03/05 09:36:54;;;;;;;7.50;4.05;;;;;;;9.57;32.90;97497.63;4943631;28;20030;-83
2022/03/05 09:39:20;;;;;;;9.45;4.40;;;;;;;9.40;32.71;97486.38;4941452;28;20718;-83
2022/03/05 09:41:45;;;;;;;7.55;4.25;;;;;;;9.38;32.33;97494.38;4943316;28;20033;-81
2022/03/05 09:44:11;;;;;;;7.68;4.43;;;;;;;9.43;33.21;97496.31;4925669;28;20950;-82
2022/03/05 09:46:37;;;;;;;7.32;3.92;;;;;;;9.77;31.76;97504.22;4946986;28;20108;-83
2022/03/05 09:49:03;;;;;;;6.07;3.78;;;;;;;9.79;31.36;97503.00;4932443;28;20017;-82
2022/03/05 09:51:29;;;;;;;7.45;4.18;;;;;;;10.19;32.16;97496.19;4951488;28;20101;-83
2022/03/05 09:53:55;;;;;;;8.20;4.40;;;;;;;10.06;31.54;97497.25;4941752;28;20033;-85
2022/03/05 09:56:21;;;;;;;8.57;4.25;;;;;;;10.06;31.99;97494.66;4921016;28;20619;-83
2022/03/05 09:58:48;;;;;;;8.15;4.10;;;;;;;10.07;31.21;97491.03;4915360;28;20228;-85
2022/03/05 10:01:14;;;;;;;8.82;4.32;;;;;;;9.91;31.68;97488.13;4928449;28;20029;-83
2022/03/05 10:03:50;;;;;;;6.63;3.80;;;;;;;9.89;30.97;97494.59;4936936;28;20021;-85
2022/03/05 10:06:23;;;;;;;8.98;4.53;;;;;;;10.46;31.63;97491.97;4924757;28;20695;-85
2022/03/05 10:08:51;;;;;;;7.75;3.70;;;;;;;10.59;30.35;97493.50;4957659;28;20077;-84
2022/03/05 10:11:18;;;;;;;22.25;10.75;;;;;;;10.29;31.02;97478.13;4934874;28;20108;-84
2022/03/05 10:13:43;;;;;;;9.48;5.80;;;;;;;10.54;31.67;97490.00;4942759;28;20041;-86
2022/03/05 10:16:25;;;;;;;10.80;5.15;;;;;;;10.53;30.50;97491.84;4944140;28;20033;-85
2022/03/05 10:18:52;;;;;;;10.43;4.82;;;;;;;10.53;30.57;97483.25;4961633;28;20040;-86
2022/03/05 10:21:17;;;;;;;9.77;5.45;;;;;;;10.45;31.01;97484.41;4924659;28;20083;-86
2022/03/05 10:23:47;;;;;;;11.93;5.68;;;;;;;10.59;31.23;97482.28;4930150;28;20021;-85
2022/03/05 10:26:21;;;;;;;9.70;5.47;;;;;;;9.80;31.62;97488.19;4930439;28;20105;-83
2022/03/05 10:28:47;;;;;;;11.43;6.20;;;;;;;9.81;31.99;97497.56;4932441;28;20218;-83
2022/03/05 10:31:12;;;;;;;14.32;6.60;;;;;;;10.12;31.96;97491.13;4919648;28;21044;-85
2022/03/05 10:33:43;;;;;;;9.95;4.63;;;;;;;9.80;31.10;97499.38;4918078;28;20761;-84
2022/03/05 10:36:19;;;;;;;8.70;4.25;;;;;;;9.91;30.18;97495.94;4936656;28;20170;-85
2022/03/05 10:38:52;;;;;;;7.82;4.40;;;;;;;9.70;31.53;97496.59;4950120;28;20021;-85
2022/03/05 10:41:38;;;;;;;7.32;4.20;;;;;;;10.06;31.01;97497.25;4979550;28;20025;-85
2022/03/05 10:44:07;;;;;;;7.70;3.97;;;;;;;10.23;30.40;97490.28;4938063;28;20898;-86
2022/03/05 10:46:46;;;;;;;8.85;4.68;;;;;;;10.39;29.46;97482.75;4934401;28;20029;-83
2022/03/05 10:49:19;;;;;;;9.02;4.60;;;;;;;10.38;29.50;97487.16;4937922;28;20018;-85
2022/03/05 10:51:49;;;;;;;9.05;5.32;;;;;;;10.70;29.27;97483.25;4955609;28;20763;-82
2022/03/05 10:54:43;;;;;;;11.20;5.10;;;;;;;10.76;28.98;97484.91;4971592;28;20209;-86
2022/03/05 10:57:21;;;;;;;10.82;5.15;;;;;;;10.48;29.67;97478.75;4922601;28;20024;-84
2022/03/05 10:59:52;;;;;;;13.13;5.20;;;;;;;10.33;30.10;97481.88;4951994;28;20021;-85
2022/03/05 11:02:19;;;;;;;8.43;4.50;;;;;;;10.96;29.15;97479.22;4926790;28;20627;-87
2022/03/05 11:04:45;;;;;;;7.53;3.72;;;;;;;10.58;29.19;97483.31;4955352;28;20064;-84
2022/03/05 11:07:12;;;;;;;6.13;3.40;;;;;;;10.94;29.25;97479.44;4939697;28;20021;-86
2022/03/05 11:09:40;;;;;;;8.10;4.38;;;;;;;10.58;28.12;97494.53;4926154;28;20493;-82
2022/03/05 11:12:07;;;;;;;8.45;4.15;;;;;;;11.06;28.80;97476.75;4948061;28;20623;-85
2022/03/05 11:14:33;;;;;;;7.47;4.20;;;;;;;11.05;28.50;97477.75;4937054;28;20026;-86
2022/03/05 11:16:59;;;;;;;7.85;3.75;;;;;;;10.88;28.24;97467.34;4917842;28;20034;-86
2022/03/05 11:19:26;;;;;;;8.10;3.88;;;;;;;10.97;28.53;97478.97;4934637;28;20088;-83
2022/03/05 11:21:52;;;;;;;6.25;3.08;;;;;;;11.32;27.65;97480.47;4933685;28;20021;-85
2022/03/05 11:24:19;;;;;;;6.72;3.78;;;;;;;11.75;26.65;97478.91;4935842;28;20108;-85
2022/03/05 11:26:51;;;;;;;6.97;3.28;;;;;;;11.95;26.00;97467.16;4932565;28;20033;-86
2022/03/05 11:29:24;;;;;;;5.40;3.72;;;;;;;12.16;26.62;97468.13;4928393;28;20021;-84
2022/03/05 11:31:49;;;;;;;5.05;3.20;;;;;;;12.40;26.04;97465.22;4936651;28;20125;-83